Terminal Aerodrome Forecast
Issued by NWS Portland, OR

Home | Current Version | Previous Version | Text Only | Print | Product List | Glossary On
Versions: 1 2 3 4 5 6 7 8 9 10 11 12 13 14 15 16 17 18 19 20
000
FTUS46 KPQR 260532
TAFSLE
TAF
KSLE 260532Z 2606/2706 19010KT P6SM -SHRA BKN050 BKN080
     FM261000 24007KT P6SM -SHRA SCT030 BKN050
     FM270100 20005KT P6SM SCT050 BKN080=

USA.gov is the U.S. government's official web portal to all federal, state and local government web resources and services.